Toronto, Canada
Current Conditions -  °F | °C
As of 9:00 AM on Friday 31 Oct 2014 (Local Time) from CYYZ Reporting Station
Light Rain Light Rain  
Wind Chill: 39°   Ceiling: 2600
Heat Index: 43°   Visibility: 6mi
Dew Point: 39°   Wind: 6mph
Humidity: 87%   Direction: 150°SSE
Pressure: 29.96"   Gusts: NA
Location:  43.65°N, 79.39°W
Report Text: CYYZ 311300Z 15005KT 6SM -RA OVC026 06/04 A2996 RMK NS8 SLP149
Loading
Personal Weather Stations






























Interactive Weather Map New forecast layout! Learn more

10-Day Weather Forecast

Advertisements
Track Severe Weather on mobile